Time,TemperatureF,DewpointF,PressureIn,WindDirection,WindDirectionDegrees,WindSpeedMPH,WindSpeedGustMPH,Humidity,HourlyPrecipIn,Conditions,Clouds,dailyrainin,SoftwareType,DateUTC
2013-03-16 00:02:00,46.0,38.0,-100.00,WNW,295,0.0,2.0,73,0.00,,,-99.99,,2013-03-16 04:02:00,
2013-03-16 00:13:00,46.0,38.0,-100.00,North,5,1.0,2.0,73,0.00,,,-99.99,,2013-03-16 04:13:00,
2013-03-16 00:23:00,47.0,39.0,-100.00,West,270,1.0,3.0,73,0.55,,,-99.99,,2013-03-16 04:23:00,
2013-03-16 00:33:00,46.0,38.0,-100.00,SSW,205,1.0,2.0,74,0.00,,,-99.99,,2013-03-16 04:33:00,
2013-03-16 00:43:00,46.0,38.0,-100.00,NW,325,0.0,2.0,75,0.00,,,-99.99,,2013-03-16 04:43:00,
2013-03-16 00:52:00,45.0,39.0,-100.00,NNE,15,1.0,3.0,78,0.55,,,-99.99,,2013-03-16 04:52:00,
2013-03-16 01:02:00,45.0,40.0,-100.00,North,10,2.0,4.0,80,3.39,,,-99.99,,2013-03-16 05:02:00,
2013-03-16 01:12:00,45.0,40.0,-100.00,North,0,2.0,7.0,82,0.55,,,-99.99,,2013-03-16 05:12:00,
2013-03-16 01:22:00,45.0,40.0,-100.00,North,10,2.0,5.0,85,4.53,,,-99.99,,2013-03-16 05:22:00,
2013-03-16 01:32:00,45.0,41.0,-100.00,NNE,30,1.0,5.0,86,11.89,,,-99.99,,2013-03-16 05:32:00,
2013-03-16 01:42:00,45.0,41.0,-100.00,SE,140,4.0,6.0,87,2.83,,,-99.99,,2013-03-16 05:42:00,
2013-03-16 01:52:00,45.0,41.0,-100.00,SE,140,4.0,6.0,87,2.83,,,-99.99,,2013-03-16 05:52:00,
2013-03-16 02:02:00,45.0,42.0,-100.00,NNW,335,7.0,12.0,89,3.39,,,-99.99,,2013-03-16 06:02:00,
2013-03-16 02:12:00,45.0,42.0,-100.00,NNW,335,7.0,12.0,89,3.39,,,-99.99,,2013-03-16 06:12:00,
2013-03-16 02:22:00,45.0,42.0,-100.00,NW,320,3.0,6.0,88,0.00,,,-99.99,,2013-03-16 06:22:00,
2013-03-16 02:32:00,45.0,42.0,-100.00,East,85,3.0,12.0,89,0.00,,,-99.99,,2013-03-16 06:32:00,
2013-03-16 02:42:00,45.0,42.0,-100.00,South,180,1.0,6.0,89,0.00,,,-99.99,,2013-03-16 06:42:00,
2013-03-16 02:52:00,45.0,42.0,-100.00,WNW,290,1.0,2.0,89,0.00,,,-99.99,,2013-03-16 06:52:00,
2013-03-16 03:02:00,45.0,42.0,-100.00,ENE,75,0.0,4.0,89,0.00,,,-99.99,,2013-03-16 07:02:00,
2013-03-16 03:12:00,44.0,41.0,-100.00,WNW,300,0.0,3.0,88,0.00,,,-99.99,,2013-03-16 07:12:00,
2013-03-16 03:22:00,44.0,41.0,-100.00,WNW,300,0.0,3.0,88,0.00,,,-99.99,,2013-03-16 07:22:00,
2013-03-16 03:32:00,45.0,42.0,-100.00,South,190,1.0,2.0,90,0.00,,,-99.99,,2013-03-16 07:32:00,
2013-03-16 03:42:00,45.0,42.0,-100.00,SW,235,1.0,2.0,89,0.00,,,-99.99,,2013-03-16 07:42:00,
2013-03-16 03:52:00,44.0,41.0,-100.00,West,260,1.0,3.0,89,0.00,,,-99.99,,2013-03-16 07:52:00,
2013-03-16 04:03:00,44.0,41.0,-100.00,SW,215,1.0,3.0,89,0.00,,,-99.99,,2013-03-16 08:03:00,
2013-03-16 04:12:00,44.0,41.0,-100.00,SW,235,1.0,3.0,89,0.00,,,-99.99,,2013-03-16 08:12:00,
2013-03-16 04:23:00,44.0,41.0,-100.00,SW,235,1.0,3.0,89,0.00,,,-99.99,,2013-03-16 08:23:00,
2013-03-16 04:32:00,44.0,41.0,-100.00,SW,235,1.0,4.0,89,0.00,,,-99.99,,2013-03-16 08:32:00,
2013-03-16 04:42:00,44.0,41.0,-100.00,SW,235,1.0,4.0,89,0.00,,,-99.99,,2013-03-16 08:42:00,
2013-03-16 04:52:00,44.0,41.0,-100.00,SW,235,1.0,4.0,89,0.00,,,-99.99,,2013-03-16 08:52:00,
2013-03-16 05:02:00,43.0,40.0,-100.00,WSW,245,2.0,3.0,89,0.00,,,-99.99,,2013-03-16 09:02:00,
2013-03-16 05:12:00,43.0,40.0,-100.00,WSW,245,0.0,2.0,89,0.00,,,-99.99,,2013-03-16 09:12:00,
2013-03-16 05:22:00,43.0,40.0,-100.00,SW,220,0.0,2.0,90,0.00,,,-99.99,,2013-03-16 09:22:00,
2013-03-16 05:33:00,42.0,40.0,-100.00,SW,230,1.0,3.0,90,0.00,,,-99.99,,2013-03-16 09:33:00,
2013-03-16 05:42:00,43.0,40.0,-100.00,WSW,245,0.0,2.0,90,0.00,,,-99.99,,2013-03-16 09:42:00,
2013-03-16 05:52:00,43.0,40.0,-100.00,WSW,245,0.0,2.0,90,0.00,,,-99.99,,2013-03-16 09:52:00,
2013-03-16 06:03:00,42.0,40.0,-100.00,SW,235,2.0,3.0,90,0.00,,,-99.99,,2013-03-16 10:03:00,
2013-03-16 06:12:00,42.0,40.0,-100.00,SW,235,2.0,4.0,91,0.00,,,-99.99,,2013-03-16 10:12:00,
2013-03-16 06:23:00,42.0,40.0,-100.00,SW,225,1.0,3.0,91,0.00,,,-99.99,,2013-03-16 10:23:00,
2013-03-16 06:32:00,42.0,40.0,-100.00,NNE,20,0.0,3.0,91,0.00,,,-99.99,,2013-03-16 10:32:00,
2013-03-16 06:42:00,42.0,40.0,-100.00,SW,220,1.0,3.0,91,0.00,,,-99.99,,2013-03-16 10:42:00,
2013-03-16 06:52:00,42.0,40.0,-100.00,SW,220,1.0,4.0,91,0.00,,,-99.99,,2013-03-16 10:52:00,
2013-03-16 07:03:00,42.0,39.0,-100.00,WSW,245,1.0,3.0,91,0.00,,,-99.99,,2013-03-16 11:03:00,
2013-03-16 07:12:00,42.0,40.0,-100.00,WSW,240,0.0,3.0,92,0.00,,,-99.99,,2013-03-16 11:12:00,
2013-03-16 07:22:00,42.0,40.0,-100.00,SW,225,1.0,2.0,92,5.08,,,-99.99,,2013-03-16 11:22:00,
2013-03-16 07:32:00,41.0,39.0,-100.00,North,5,1.0,3.0,91,0.00,,,-99.99,,2013-03-16 11:32:00,
2013-03-16 07:43:00,42.0,40.0,-100.00,SSW,200,1.0,2.0,92,0.00,,,-99.99,,2013-03-16 11:43:00,
2013-03-16 07:52:00,42.0,40.0,-100.00,SSW,200,1.0,2.0,92,0.00,,,-99.99,,2013-03-16 11:52:00,
2013-03-16 08:02:00,42.0,40.0,-100.00,SSE,160,1.0,2.0,92,1.10,,,-99.99,,2013-03-16 12:02:00,
2013-03-16 08:12:00,42.0,40.0,-100.00,NW,325,0.0,2.0,92,0.00,,,-99.99,,2013-03-16 12:12:00,
2013-03-16 08:22:00,42.0,40.0,-100.00,NW,325,0.0,2.0,92,0.00,,,-99.99,,2013-03-16 12:22:00,
2013-03-16 08:32:00,43.0,41.0,-100.00,South,190,2.0,3.0,92,0.00,,,-99.99,,2013-03-16 12:32:00,
2013-03-16 08:42:00,43.0,41.0,-100.00,South,185,1.0,3.0,92,0.00,,,-99.99,,2013-03-16 12:42:00,
2013-03-16 08:52:00,43.0,42.0,-100.00,South,170,2.0,6.0,93,0.00,,,-99.99,,2013-03-16 12:52:00,
2013-03-16 09:02:00,43.0,42.0,-100.00,South,170,2.0,6.0,93,0.00,,,-99.99,,2013-03-16 13:02:00,
2013-03-16 09:12:00,44.0,42.0,-100.00,NE,35,1.0,6.0,92,0.00,,,-99.99,,2013-03-16 13:12:00,
2013-03-16 09:22:00,45.0,42.0,-100.00,SE,125,1.0,5.0,92,0.00,,,-99.99,,2013-03-16 13:22:00,
2013-03-16 09:32:00,45.0,43.0,-100.00,SE,145,2.0,3.0,92,0.00,,,-99.99,,2013-03-16 13:32:00,
2013-03-16 09:42:00,45.0,43.0,-100.00,SSE,155,2.0,5.0,92,0.00,,,-99.99,,2013-03-16 13:42:00,
2013-03-16 09:52:00,45.0,43.0,-100.00,SSE,155,1.0,5.0,92,0.00,,,-99.99,,2013-03-16 13:52:00,
2013-03-16 10:03:00,45.0,43.0,-100.00,SSE,155,1.0,5.0,92,0.00,,,-99.99,,2013-03-16 14:03:00,
2013-03-16 10:12:00,46.0,44.0,-100.00,NNE,20,1.0,4.0,92,0.55,,,-99.99,,2013-03-16 14:12:00,
2013-03-16 10:22:00,46.0,44.0,-100.00,SW,235,0.0,2.0,92,0.00,,,-99.99,,2013-03-16 14:22:00,
2013-03-16 10:32:00,46.0,44.0,-100.00,SE,145,0.0,3.0,92,0.00,,,-99.99,,2013-03-16 14:32:00,
2013-03-16 10:42:00,47.0,45.0,-100.00,East,100,0.0,2.0,92,0.00,,,-99.99,,2013-03-16 14:42:00,
2013-03-16 10:52:00,47.0,45.0,-100.00,ESE,105,1.0,2.0,92,0.55,,,-99.99,,2013-03-16 14:52:00,
2013-03-16 11:03:00,48.0,46.0,-100.00,SW,225,0.0,4.0,92,0.00,,,-99.99,,2013-03-16 15:03:00,
2013-03-16 11:12:00,49.0,47.0,-100.00,NE,45,1.0,5.0,92,0.00,,,-99.99,,2013-03-16 15:12:00,
2013-03-16 11:22:00,50.0,48.0,-100.00,SSE,155,0.0,2.0,91,0.00,,,-99.99,,2013-03-16 15:22:00,
2013-03-16 11:33:00,51.0,49.0,-100.00,ESE,115,1.0,3.0,91,0.00,,,-99.99,,2013-03-16 15:33:00,
2013-03-16 11:43:00,53.0,50.0,-100.00,SSE,155,1.0,4.0,90,0.00,,,-99.99,,2013-03-16 15:43:00,
2013-03-16 11:53:00,58.0,54.0,-100.00,WNW,295,8.0,17.0,87,0.00,,,-99.99,,2013-03-16 15:53:00,
2013-03-16 12:03:00,60.0,53.0,-100.00,West,260,4.0,16.0,77,0.00,,,-99.99,,2013-03-16 16:03:00,
2013-03-16 12:12:00,60.0,51.0,-100.00,SW,235,6.0,16.0,70,0.00,,,-99.99,,2013-03-16 16:12:00,
2013-03-16 12:23:00,61.0,51.0,-100.00,West,280,4.0,16.0,68,0.00,,,-99.99,,2013-03-16 16:23:00,
2013-03-16 12:33:00,61.0,50.0,-100.00,West,265,4.0,14.0,66,0.00,,,-99.99,,2013-03-16 16:33:00,
2013-03-16 12:42:00,60.0,50.0,-100.00,West,260,6.0,9.0,67,0.00,,,-99.99,,2013-03-16 16:42:00,
2013-03-16 12:52:00,61.0,49.0,-100.00,WNW,295,4.0,14.0,66,0.00,,,-99.99,,2013-03-16 16:52:00,
2013-03-16 13:03:00,61.0,48.0,-100.00,North,0,4.0,10.0,63,0.00,,,-99.99,,2013-03-16 17:03:00,
2013-03-16 13:13:00,61.0,47.0,-100.00,West,275,6.0,12.0,59,0.00,,,-99.99,,2013-03-16 17:13:00,
2013-03-16 13:23:00,61.0,47.0,-100.00,NNW,330,4.0,9.0,60,0.00,,,-99.99,,2013-03-16 17:23:00,
2013-03-16 13:33:00,61.0,47.0,-100.00,NW,305,5.0,12.0,59,0.00,,,-99.99,,2013-03-16 17:33:00,
2013-03-16 13:42:00,60.0,46.0,-100.00,North,0,6.0,11.0,59,0.00,,,-99.99,,2013-03-16 17:42:00,
2013-03-16 13:52:00,61.0,46.0,-100.00,West,280,5.0,13.0,57,0.00,,,-99.99,,2013-03-16 17:52:00,
2013-03-16 14:02:00,61.0,46.0,-100.00,NNW,340,4.0,12.0,57,0.00,,,-99.99,,2013-03-16 18:02:00,
2013-03-16 14:13:00,61.0,46.0,-100.00,North,0,2.0,10.0,57,0.00,,,-99.99,,2013-03-16 18:13:00,
2013-03-16 14:23:00,61.0,44.0,-100.00,WSW,255,4.0,12.0,53,0.00,,,-99.99,,2013-03-16 18:23:00,
2013-03-16 14:33:00,61.0,46.0,-100.00,NNW,345,2.0,9.0,55,0.00,,,-99.99,,2013-03-16 18:33:00,
2013-03-16 14:43:00,61.0,46.0,-100.00,West,275,6.0,12.0,56,0.00,,,-99.99,,2013-03-16 18:43:00,
2013-03-16 14:52:00,60.0,46.0,-100.00,North,0,2.0,12.0,58,0.00,,,-99.99,,2013-03-16 18:52:00,
2013-03-16 15:02:00,57.0,45.0,-100.00,NW,320,7.0,15.0,62,0.00,,,-99.99,,2013-03-16 19:02:00,
2013-03-16 15:12:00,57.0,43.0,-100.00,NNW,345,7.0,14.0,61,0.00,,,-99.99,,2013-03-16 19:12:00,
2013-03-16 15:22:00,57.0,43.0,-100.00,NNW,345,7.0,13.0,61,0.00,,,-99.99,,2013-03-16 19:22:00,
2013-03-16 15:32:00,56.0,43.0,-100.00,NW,325,9.0,14.0,61,0.00,,,-99.99,,2013-03-16 19:32:00,
2013-03-16 15:42:00,56.0,44.0,-100.00,NNW,330,4.0,12.0,62,0.00,,,-99.99,,2013-03-16 19:42:00,
2013-03-16 15:52:00,56.0,44.0,-100.00,North,355,4.0,9.0,64,0.00,,,-99.99,,2013-03-16 19:52:00,
2013-03-16 16:02:00,55.0,42.0,-100.00,North,350,6.0,12.0,63,0.00,,,-99.99,,2013-03-16 20:02:00,
2013-03-16 16:12:00,54.0,41.0,-100.00,NW,325,6.0,13.0,61,0.00,,,-99.99,,2013-03-16 20:12:00,
2013-03-16 16:22:00,55.0,43.0,-100.00,North,0,3.0,10.0,63,0.00,,,-99.99,,2013-03-16 20:22:00,
2013-03-16 16:33:00,54.0,42.0,-100.00,NNW,335,7.0,11.0,63,0.00,,,-99.99,,2013-03-16 20:33:00,
2013-03-16 16:42:00,53.0,41.0,-100.00,NW,320,4.0,11.0,64,0.00,,,-99.99,,2013-03-16 20:42:00,
2013-03-16 16:52:00,53.0,42.0,-100.00,NW,325,4.0,9.0,66,0.00,,,-99.99,,2013-03-16 20:52:00,
2013-03-16 17:02:00,52.0,41.0,-100.00,NW,320,4.0,9.0,65,0.00,,,-99.99,,2013-03-16 21:02:00,
2013-03-16 17:12:00,52.0,41.0,-100.00,NNW,330,4.0,8.0,66,0.00,,,-99.99,,2013-03-16 21:12:00,
2013-03-16 17:22:00,51.0,41.0,-100.00,NNW,335,4.0,8.0,67,0.00,,,-99.99,,2013-03-16 21:22:00,
2013-03-16 17:33:00,51.0,41.0,-100.00,NNW,335,4.0,8.0,67,0.00,,,-99.99,,2013-03-16 21:33:00,
2013-03-16 17:43:00,50.0,40.0,-100.00,North,350,4.0,7.0,68,0.00,,,-99.99,,2013-03-16 21:43:00,
2013-03-16 17:52:00,50.0,40.0,-100.00,North,0,4.0,9.0,67,0.00,,,-99.99,,2013-03-16 21:52:00,
2013-03-16 18:03:00,50.0,40.0,-100.00,NW,325,3.0,11.0,67,0.00,,,-99.99,,2013-03-16 22:03:00,
2013-03-16 18:13:00,49.0,39.0,-100.00,NNW,345,5.0,11.0,67,0.00,,,-99.99,,2013-03-16 22:13:00,
2013-03-16 18:23:00,49.0,39.0,-100.00,NW,320,3.0,11.0,68,0.00,,,-99.99,,2013-03-16 22:23:00,
2013-03-16 18:33:00,49.0,39.0,-100.00,NNW,345,4.0,9.0,68,0.00,,,-99.99,,2013-03-16 22:33:00,
2013-03-16 18:42:00,49.0,39.0,-100.00,North,0,4.0,12.0,70,0.00,,,-99.99,,2013-03-16 22:42:00,
2013-03-16 18:52:00,48.0,39.0,-100.00,NNW,340,4.0,11.0,72,0.00,,,-99.99,,2013-03-16 22:52:00,
2013-03-16 19:02:00,47.0,39.0,-100.00,NNW,340,7.0,12.0,73,0.00,,,-99.99,,2013-03-16 23:02:00,
2013-03-16 19:13:00,47.0,39.0,-100.00,NNW,340,4.0,7.0,74,0.00,,,-99.99,,2013-03-16 23:13:00,
2013-03-16 19:22:00,46.0,39.0,-100.00,North,0,5.0,8.0,74,0.00,,,-99.99,,2013-03-16 23:22:00,
2013-03-16 19:33:00,46.0,39.0,-100.00,North,0,4.0,11.0,76,0.00,,,-99.99,,2013-03-16 23:33:00,
2013-03-16 19:42:00,45.0,38.0,-100.00,North,0,4.0,7.0,78,0.00,,,-99.99,,2013-03-16 23:42:00,
2013-03-16 19:52:00,44.0,38.0,-100.00,North,0,2.0,7.0,80,0.00,,,-99.99,,2013-03-16 23:52:00,
2013-03-16 20:02:00,43.0,38.0,-100.00,North,0,3.0,6.0,82,0.00,,,-99.99,,2013-03-17 00:02:00,
2013-03-16 20:12:00,43.0,38.0,-100.00,NNW,345,3.0,6.0,84,0.00,,,-99.99,,2013-03-17 00:12:00,
2013-03-16 20:22:00,42.0,38.0,-100.00,North,0,6.0,9.0,84,0.00,,,-99.99,,2013-03-17 00:22:00,
2013-03-16 20:33:00,42.0,38.0,-100.00,NNW,345,4.0,9.0,85,0.00,,,-99.99,,2013-03-17 00:33:00,
2013-03-16 20:42:00,41.0,37.0,-100.00,NNW,340,4.0,8.0,85,0.00,,,-99.99,,2013-03-17 00:42:00,
2013-03-16 20:52:00,41.0,37.0,-100.00,NNW,345,3.0,6.0,85,0.00,,,-99.99,,2013-03-17 00:52:00,
2013-03-16 21:02:00,42.0,38.0,-100.00,North,350,2.0,6.0,85,0.00,,,-99.99,,2013-03-17 01:02:00,
2013-03-16 21:12:00,41.0,37.0,-100.00,North,350,3.0,9.0,85,0.00,,,-99.99,,2013-03-17 01:12:00,
2013-03-16 21:22:00,41.0,37.0,-100.00,NNE,20,1.0,5.0,84,0.00,,,-99.99,,2013-03-17 01:22:00,
2013-03-16 21:32:00,41.0,37.0,-100.00,North,0,3.0,6.0,83,0.00,,,-99.99,,2013-03-17 01:32:00,
2013-03-16 21:42:00,41.0,37.0,-100.00,North,0,2.0,6.0,82,0.00,,,-99.99,,2013-03-17 01:42:00,
2013-03-16 21:52:00,41.0,36.0,-100.00,North,0,2.0,7.0,81,0.00,,,-99.99,,2013-03-17 01:52:00,
2013-03-16 22:03:00,41.0,36.0,-100.00,North,0,1.0,6.0,81,0.00,,,-99.99,,2013-03-17 02:03:00,
2013-03-16 22:13:00,41.0,35.0,-100.00,North,10,1.0,4.0,80,0.00,,,-99.99,,2013-03-17 02:13:00,
2013-03-16 22:22:00,41.0,35.0,-100.00,North,10,1.0,4.0,80,0.00,,,-99.99,,2013-03-17 02:22:00,
2013-03-16 22:33:00,41.0,35.0,-100.00,NNE,30,1.0,3.0,81,0.00,,,-99.99,,2013-03-17 02:33:00,
2013-03-16 22:43:00,40.0,35.0,-100.00,NNW,345,2.0,5.0,81,0.00,,,-99.99,,2013-03-17 02:43:00,
2013-03-16 22:52:00,40.0,35.0,-100.00,North,355,2.0,4.0,81,0.00,,,-99.99,,2013-03-17 02:52:00,
2013-03-16 23:03:00,40.0,35.0,-100.00,NNW,345,2.0,5.0,81,0.00,,,-99.99,,2013-03-17 03:03:00,
2013-03-16 23:12:00,40.0,35.0,-100.00,North,10,1.0,4.0,81,0.00,,,-99.99,,2013-03-17 03:12:00,
2013-03-16 23:34:00,40.0,35.0,-100.00,NNE,25,1.0,3.0,81,0.00,,,-99.99,,2013-03-17 03:34:00,
2013-03-16 23:43:00,39.0,35.0,-100.00,North,0,2.0,4.0,82,0.00,,,-99.99,,2013-03-17 03:43:00,
2013-03-16 23:52:00,39.0,35.0,-100.00,NNW,340,2.0,5.0,82,0.00,,,-99.99,,2013-03-17 03:52:00,